createdAt,value
2023-03-10T00:00:00.569Z,97423
2023-03-10T00:01:00.419Z,97423
2023-03-10T00:02:00.533Z,97426
2023-03-10T00:03:00.429Z,97426
2023-03-10T00:04:01.517Z,97426
2023-03-10T00:05:01.218Z,97426
2023-03-10T00:06:01.304Z,97426
2023-03-10T00:07:00.500Z,97421
2023-03-10T00:08:00.419Z,97421
2023-03-10T00:09:00.793Z,97421
2023-03-10T00:10:00.448Z,97421
2023-03-10T00:11:00.456Z,97421
2023-03-10T00:12:00.511Z,97423
2023-03-10T00:13:00.435Z,97423
2023-03-10T00:14:00.433Z,97423
2023-03-10T00:15:00.466Z,97423
2023-03-10T00:16:00.596Z,97423
2023-03-10T00:17:00.597Z,97418
2023-03-10T00:18:00.434Z,97418
2023-03-10T00:19:00.459Z,97418
2023-03-10T00:20:00.452Z,97418
2023-03-10T00:21:00.452Z,97418
2023-03-10T00:22:00.485Z,97411
2023-03-10T00:23:00.435Z,97411
2023-03-10T00:24:00.467Z,97411
2023-03-10T00:25:00.436Z,97411
2023-03-10T00:26:00.451Z,97411
2023-03-10T00:27:00.464Z,97404
2023-03-10T00:28:00.447Z,97404
2023-03-10T00:29:00.469Z,97404
2023-03-10T00:30:00.589Z,97404
2023-03-10T00:31:02.467Z,97404
2023-03-10T00:32:00.475Z,97396
2023-03-10T00:33:00.917Z,97396
2023-03-10T00:34:00.443Z,97396
2023-03-10T00:35:00.602Z,97396
2023-03-10T00:36:10.474Z,97396
2023-03-10T00:37:00.429Z,97401
2023-03-10T00:38:00.476Z,97401
2023-03-10T00:39:00.543Z,97401
2023-03-10T00:40:00.439Z,97401
2023-03-10T00:41:01.674Z,97401
2023-03-10T00:42:00.438Z,97395
2023-03-10T00:43:00.476Z,97395
2023-03-10T00:44:00.874Z,97395
2023-03-10T00:45:00.469Z,97395
2023-03-10T00:46:00.536Z,97395
2023-03-10T00:47:00.605Z,97395
2023-03-10T00:48:00.586Z,97395
2023-03-10T00:49:00.936Z,97395
2023-03-10T00:50:01.083Z,97395
2023-03-10T00:51:01.159Z,97395
2023-03-10T00:52:00.537Z,97387
2023-03-10T00:53:00.546Z,97387
2023-03-10T00:54:01.100Z,97387
2023-03-10T00:55:00.495Z,97387
2023-03-10T00:56:03.937Z,97387
2023-03-10T00:57:00.533Z,97383
2023-03-10T00:58:00.526Z,97383
2023-03-10T00:59:00.595Z,97383
2023-03-10T01:00:00.524Z,97383
2023-03-10T01:01:01.044Z,97383
2023-03-10T01:02:00.621Z,97395
2023-03-10T01:03:00.559Z,97395
2023-03-10T01:04:03.944Z,97395
2023-03-10T01:05:00.457Z,97395
2023-03-10T01:06:00.436Z,97395
2023-03-10T01:07:00.430Z,97393
2023-03-10T01:08:00.442Z,97393
2023-03-10T01:09:00.855Z,97393
2023-03-10T01:10:00.453Z,97393
2023-03-10T01:11:00.434Z,97393
2023-03-10T01:12:00.467Z,97392
2023-03-10T01:13:00.437Z,97392
2023-03-10T01:14:01.728Z,97392
2023-03-10T01:15:00.462Z,97392
2023-03-10T01:16:00.495Z,97392
2023-03-10T01:17:00.511Z,97391
2023-03-10T01:18:00.421Z,97391
2023-03-10T01:19:00.492Z,97391
2023-03-10T01:20:00.433Z,97391
2023-03-10T01:21:00.438Z,97391
2023-03-10T01:22:00.439Z,97396
2023-03-10T01:23:00.447Z,97396
2023-03-10T01:24:00.984Z,97396
2023-03-10T01:25:00.756Z,97396
2023-03-10T01:26:00.430Z,97396
2023-03-10T01:27:00.455Z,97398
2023-03-10T01:28:00.450Z,97398
2023-03-10T01:29:00.427Z,97398
2023-03-10T01:30:00.447Z,97398
2023-03-10T01:31:00.493Z,97398
2023-03-10T01:32:00.425Z,97400
2023-03-10T01:33:00.432Z,97400
2023-03-10T01:34:00.456Z,97400
2023-03-10T01:35:00.474Z,97400
2023-03-10T01:36:01.178Z,97400
2023-03-10T01:37:00.421Z,97409
2023-03-10T01:38:01.066Z,97409
2023-03-10T01:39:00.495Z,97409
2023-03-10T01:40:01.183Z,97409
2023-03-10T01:41:00.440Z,97409
2023-03-10T01:42:00.440Z,97414
2023-03-10T01:43:10.342Z,97414
2023-03-10T01:44:00.432Z,97414
2023-03-10T01:45:10.346Z,97414
2023-03-10T01:46:00.430Z,97414
2023-03-10T01:47:00.574Z,97415
2023-03-10T01:48:00.429Z,97415
2023-03-10T01:49:03.183Z,97415
2023-03-10T01:50:01.624Z,97415
2023-03-10T01:51:00.563Z,97415
2023-03-10T01:52:10.353Z,97412
2023-03-10T01:53:00.523Z,97412
2023-03-10T01:54:01.576Z,97412
2023-03-10T01:55:05.282Z,97412
2023-03-10T01:56:02.178Z,97412
2023-03-10T01:57:00.729Z,97412
2023-03-10T01:58:02.317Z,97412
2023-03-10T01:59:01.163Z,97412
2023-03-10T02:00:00.496Z,97412
2023-03-10T02:01:00.518Z,97412
2023-03-10T02:02:00.701Z,97412
2023-03-10T02:03:05.660Z,97412
2023-03-10T02:04:03.381Z,97412
2023-03-10T02:05:01.293Z,97412
2023-03-10T02:06:02.731Z,97412
2023-03-10T02:07:01.775Z,97413
2023-03-10T02:08:01.196Z,97413
2023-03-10T02:09:02.268Z,97413
2023-03-10T02:10:01.304Z,97413
2023-03-10T02:11:00.827Z,97413
2023-03-10T02:12:01.557Z,97411
2023-03-10T02:13:00.459Z,97411
2023-03-10T02:14:01.645Z,97411
2023-03-10T02:15:00.532Z,97411
2023-03-10T02:16:00.794Z,97411
2023-03-10T02:17:01.194Z,97415
2023-03-10T02:18:02.490Z,97415
2023-03-10T02:19:03.297Z,97415
2023-03-10T02:20:10.367Z,97415
2023-03-10T02:21:03.822Z,97415
2023-03-10T02:22:04.173Z,97418
2023-03-10T02:23:00.581Z,97418
2023-03-10T02:24:01.977Z,97418
2023-03-10T02:25:07.380Z,97418
2023-03-10T02:26:09.267Z,97418
2023-03-10T02:27:03.838Z,97420
2023-03-10T02:28:00.577Z,97420
2023-03-10T02:29:03.834Z,97420
2023-03-10T02:30:10.372Z,97420
2023-03-10T02:31:01.361Z,97420
2023-03-10T02:32:00.699Z,97431
2023-03-10T02:33:04.201Z,97431
2023-03-10T02:34:00.671Z,97431
2023-03-10T02:35:00.469Z,97431
2023-03-10T02:36:02.558Z,97431
2023-03-10T02:37:00.450Z,97424
2023-03-10T02:38:00.450Z,97424
2023-03-10T02:39:00.425Z,97424
2023-03-10T02:40:00.719Z,97424
2023-03-10T02:41:00.946Z,97424
2023-03-10T02:42:00.437Z,97431
2023-03-10T02:43:02.654Z,97431
2023-03-10T02:44:02.243Z,97431
2023-03-10T02:45:01.724Z,97431
2023-03-10T02:46:01.913Z,97431
2023-03-10T02:47:00.491Z,97434
2023-03-10T02:48:00.437Z,97434
2023-03-10T02:49:01.644Z,97434
2023-03-10T02:50:00.446Z,97434
2023-03-10T02:51:01.745Z,97434
2023-03-10T02:52:03.215Z,97435
2023-03-10T02:53:05.900Z,97435
2023-03-10T02:54:00.679Z,97435
2023-03-10T02:55:00.437Z,97435
2023-03-10T02:56:00.507Z,97435
2023-03-10T02:57:00.422Z,97435
2023-03-10T02:58:00.434Z,97435
2023-03-10T02:59:00.599Z,97435
2023-03-10T03:00:00.446Z,97435
2023-03-10T03:01:00.872Z,97435
2023-03-10T03:02:00.441Z,97439
2023-03-10T03:03:00.435Z,97439
2023-03-10T03:04:00.536Z,97439
2023-03-10T03:05:00.472Z,97439
2023-03-10T03:06:00.618Z,97439
2023-03-10T03:07:00.443Z,97444
2023-03-10T03:08:00.530Z,97444
2023-03-10T03:09:00.451Z,97444
2023-03-10T03:10:00.459Z,97444
2023-03-10T03:11:01.900Z,97444
2023-03-10T03:12:00.424Z,97452
2023-03-10T03:13:00.624Z,97452
2023-03-10T03:14:00.433Z,97452
2023-03-10T03:15:00.449Z,97452
2023-03-10T03:16:00.693Z,97452
2023-03-10T03:17:00.672Z,97459
2023-03-10T03:18:00.906Z,97459
2023-03-10T03:19:01.134Z,97459
2023-03-10T03:20:00.434Z,97459
2023-03-10T03:21:04.672Z,97459
2023-03-10T03:22:00.462Z,97470
2023-03-10T03:23:00.427Z,97470
2023-03-10T03:24:00.449Z,97470
2023-03-10T03:25:00.440Z,97470
2023-03-10T03:26:00.481Z,97470
2023-03-10T03:27:00.500Z,97471
2023-03-10T03:28:00.444Z,97471
2023-03-10T03:29:00.438Z,97471
2023-03-10T03:30:00.460Z,97471
2023-03-10T03:31:00.448Z,97471
2023-03-10T03:32:00.588Z,97479
2023-03-10T03:33:00.983Z,97479
2023-03-10T03:34:00.428Z,97479
2023-03-10T03:35:00.636Z,97479
2023-03-10T03:36:00.478Z,97479
2023-03-10T03:37:00.451Z,97495
2023-03-10T03:38:00.633Z,97495
2023-03-10T03:39:00.441Z,97495
2023-03-10T03:40:00.512Z,97495
2023-03-10T03:41:00.436Z,97495
2023-03-10T03:42:00.439Z,97506
2023-03-10T03:43:01.041Z,97506
2023-03-10T03:44:00.430Z,97506
2023-03-10T03:45:00.426Z,97506
2023-03-10T03:46:00.761Z,97506
2023-03-10T03:47:00.453Z,97515
2023-03-10T03:48:00.476Z,97515
2023-03-10T03:49:00.720Z,97515
2023-03-10T03:50:01.120Z,97515
2023-03-10T03:51:00.834Z,97515
2023-03-10T03:52:00.442Z,97540
2023-03-10T03:53:00.460Z,97540
2023-03-10T03:54:00.442Z,97540
2023-03-10T03:55:00.813Z,97540
2023-03-10T03:56:00.431Z,97540
2023-03-10T03:57:00.559Z,97538
2023-03-10T03:58:00.512Z,97538
2023-03-10T03:59:00.480Z,97538
2023-03-10T04:00:00.711Z,97538
2023-03-10T04:01:00.448Z,97538
2023-03-10T04:02:00.502Z,97556
2023-03-10T04:03:01.149Z,97556
2023-03-10T04:04:00.475Z,97556
2023-03-10T04:05:01.025Z,97556
2023-03-10T04:06:00.628Z,97556
2023-03-10T04:07:00.632Z,97564
2023-03-10T04:08:00.442Z,97564
2023-03-10T04:09:00.473Z,97564
2023-03-10T04:10:00.446Z,97564
2023-03-10T04:11:00.419Z,97564
2023-03-10T04:12:00.454Z,97575
2023-03-10T04:13:00.473Z,97575
2023-03-10T04:14:00.463Z,97575
2023-03-10T04:15:00.458Z,97575
2023-03-10T04:16:00.543Z,97575
2023-03-10T04:17:00.720Z,97593
2023-03-10T04:18:00.435Z,97593
2023-03-10T04:19:00.423Z,97593
2023-03-10T04:20:07.094Z,97593
2023-03-10T04:21:00.454Z,97593
2023-03-10T04:22:00.450Z,97601
2023-03-10T04:23:00.456Z,97601
2023-03-10T04:24:00.453Z,97601
2023-03-10T04:25:00.641Z,97601
2023-03-10T04:26:00.757Z,97601
2023-03-10T04:27:00.425Z,97615
2023-03-10T04:28:00.433Z,97615
2023-03-10T04:29:00.445Z,97615
2023-03-10T04:30:00.502Z,97615
2023-03-10T04:31:00.476Z,97615
2023-03-10T04:32:05.610Z,97618
2023-03-10T04:33:00.988Z,97618
2023-03-10T04:34:00.490Z,97618
2023-03-10T04:35:00.436Z,97618
2023-03-10T04:36:02.423Z,97618
2023-03-10T04:37:00.433Z,97618
2023-03-10T04:38:00.482Z,97618
2023-03-10T04:39:00.440Z,97618
2023-03-10T04:40:01.053Z,97618
2023-03-10T04:41:00.602Z,97618
2023-03-10T04:42:00.445Z,97625
2023-03-10T04:43:00.484Z,97625
2023-03-10T04:44:00.655Z,97625
2023-03-10T04:45:00.452Z,97625
2023-03-10T04:46:00.574Z,97625
2023-03-10T04:47:00.764Z,97635
2023-03-10T04:48:00.455Z,97635
2023-03-10T04:49:00.470Z,97635
2023-03-10T04:50:00.482Z,97635
2023-03-10T04:51:02.560Z,97635
2023-03-10T04:52:00.433Z,97645
2023-03-10T04:53:00.430Z,97645
2023-03-10T04:54:00.505Z,97645
2023-03-10T04:55:00.426Z,97645
2023-03-10T04:56:00.952Z,97645
2023-03-10T04:57:00.446Z,97664
2023-03-10T04:58:00.574Z,97664
2023-03-10T04:59:00.453Z,97664
2023-03-10T05:00:02.713Z,97664
2023-03-10T05:01:03.434Z,97664
2023-03-10T05:02:00.601Z,97687
2023-03-10T05:03:00.446Z,97687
2023-03-10T05:04:01.303Z,97687
2023-03-10T05:05:00.442Z,97687
2023-03-10T05:06:00.430Z,97687
2023-03-10T05:07:00.423Z,97702
2023-03-10T05:08:00.583Z,97702
2023-03-10T05:09:00.433Z,97702
2023-03-10T05:10:00.464Z,97702
2023-03-10T05:11:04.717Z,97702
2023-03-10T05:12:00.486Z,97734
2023-03-10T05:13:00.529Z,97734
2023-03-10T05:14:00.448Z,97734
2023-03-10T05:15:00.428Z,97734
2023-03-10T05:16:00.570Z,97734
2023-03-10T05:17:00.571Z,97749
2023-03-10T05:18:00.435Z,97749
2023-03-10T05:19:00.418Z,97749
2023-03-10T05:20:00.511Z,97749
2023-03-10T05:21:00.445Z,97749
2023-03-10T05:22:00.926Z,97741
2023-03-10T05:23:00.487Z,97741
2023-03-10T05:24:00.552Z,97741
2023-03-10T05:25:00.435Z,97741
2023-03-10T05:26:02.372Z,97741
2023-03-10T05:27:00.500Z,97735
2023-03-10T05:28:00.433Z,97735
2023-03-10T05:29:00.427Z,97735
2023-03-10T05:30:00.869Z,97735
2023-03-10T05:31:00.457Z,97735
2023-03-10T05:32:00.428Z,97768
2023-03-10T05:33:01.310Z,97768
2023-03-10T05:34:00.476Z,97768
2023-03-10T05:35:00.996Z,97768
2023-03-10T05:36:02.796Z,97768
2023-03-10T05:37:00.481Z,97791
2023-03-10T05:38:00.478Z,97791
2023-03-10T05:39:00.419Z,97791
2023-03-10T05:40:00.422Z,97791
2023-03-10T05:41:00.683Z,97791
2023-03-10T05:42:00.444Z,97809
2023-03-10T05:43:00.447Z,97809
2023-03-10T05:44:00.559Z,97809
2023-03-10T05:45:00.456Z,97809
2023-03-10T05:46:00.652Z,97809
2023-03-10T05:47:00.583Z,97821
2023-03-10T05:48:00.492Z,97821
2023-03-10T05:49:00.425Z,97821
2023-03-10T05:50:00.568Z,97821
2023-03-10T05:51:01.668Z,97821
2023-03-10T05:52:00.488Z,97844
2023-03-10T05:53:00.427Z,97844
2023-03-10T05:54:00.435Z,97844
2023-03-10T05:55:00.445Z,97844
2023-03-10T05:56:03.965Z,97844
2023-03-10T05:57:00.478Z,97845
2023-03-10T05:58:00.428Z,97845
2023-03-10T05:59:00.425Z,97845
2023-03-10T06:00:00.436Z,97845
2023-03-10T06:01:00.445Z,97845
2023-03-10T06:02:00.545Z,97871
2023-03-10T06:03:00.603Z,97871
2023-03-10T06:04:00.458Z,97871
2023-03-10T06:05:00.440Z,97871
2023-03-10T06:06:00.652Z,97871
2023-03-10T06:07:00.902Z,97876
2023-03-10T06:08:00.453Z,97876
2023-03-10T06:09:00.563Z,97876
2023-03-10T06:10:00.535Z,97876
2023-03-10T06:11:00.453Z,97876
2023-03-10T06:12:00.496Z,97890
2023-03-10T06:13:00.480Z,97890
2023-03-10T06:14:00.469Z,97890
2023-03-10T06:15:00.518Z,97890
2023-03-10T06:16:02.226Z,97890
2023-03-10T06:17:00.490Z,97880
2023-03-10T06:18:00.480Z,97880
2023-03-10T06:19:00.438Z,97880
2023-03-10T06:20:00.462Z,97880
2023-03-10T06:21:03.263Z,97880
2023-03-10T06:22:00.472Z,97924
2023-03-10T06:23:00.419Z,97924
2023-03-10T06:24:00.427Z,97924
2023-03-10T06:25:00.508Z,97924
2023-03-10T06:26:02.975Z,97924
2023-03-10T06:27:00.431Z,97931
2023-03-10T06:28:00.434Z,97931
2023-03-10T06:29:00.435Z,97931
2023-03-10T06:30:00.469Z,97931
2023-03-10T06:31:01.137Z,97931
2023-03-10T06:32:00.529Z,97951
2023-03-10T06:33:01.069Z,97951
2023-03-10T06:34:03.886Z,97951
2023-03-10T06:35:00.430Z,97951
2023-03-10T06:36:01.183Z,97951
2023-03-10T06:37:00.470Z,97984
2023-03-10T06:38:00.437Z,97984
2023-03-10T06:39:00.433Z,97984
2023-03-10T06:40:00.480Z,97984
2023-03-10T06:41:00.454Z,97984
2023-03-10T06:42:00.437Z,98020
2023-03-10T06:43:00.427Z,98020
2023-03-10T06:44:00.472Z,98020
2023-03-10T06:45:00.431Z,98020
2023-03-10T06:46:02.109Z,98020
2023-03-10T06:47:01.473Z,98026
2023-03-10T06:48:00.515Z,98026
2023-03-10T06:49:00.419Z,98026
2023-03-10T06:50:01.056Z,98026
2023-03-10T06:51:00.500Z,98026
2023-03-10T06:52:00.475Z,98048
2023-03-10T06:53:00.541Z,98048
2023-03-10T06:54:00.465Z,98048
2023-03-10T06:55:00.756Z,98048
2023-03-10T06:56:10.353Z,98048
2023-03-10T06:57:00.420Z,98082
2023-03-10T06:58:00.509Z,98082
2023-03-10T06:59:00.425Z,98082
2023-03-10T07:00:00.566Z,98082
2023-03-10T07:01:00.711Z,98082
2023-03-10T07:02:00.427Z,98110
2023-03-10T07:03:00.447Z,98110
2023-03-10T07:04:00.859Z,98110
2023-03-10T07:05:00.507Z,98110
2023-03-10T07:06:00.522Z,98110
2023-03-10T07:07:00.455Z,98139
2023-03-10T07:08:00.439Z,98139
2023-03-10T07:09:00.477Z,98139
2023-03-10T07:10:00.428Z,98139
2023-03-10T07:11:00.433Z,98139
2023-03-10T07:12:00.456Z,98138
2023-03-10T07:13:00.473Z,98138
2023-03-10T07:14:00.473Z,98138
2023-03-10T07:15:00.508Z,98138
2023-03-10T07:16:00.455Z,98138
2023-03-10T07:17:01.417Z,98185
2023-03-10T07:18:00.486Z,98185
2023-03-10T07:19:00.428Z,98185
2023-03-10T07:20:00.451Z,98185
2023-03-10T07:21:00.474Z,98185
2023-03-10T07:22:00.426Z,98200
2023-03-10T07:23:00.444Z,98200
2023-03-10T07:24:00.448Z,98200
2023-03-10T07:25:00.425Z,98200
2023-03-10T07:26:00.439Z,98200
2023-03-10T07:27:00.970Z,98218
2023-03-10T07:28:01.390Z,98218
2023-03-10T07:29:00.502Z,98218
2023-03-10T07:30:00.541Z,98218
2023-03-10T07:31:02.979Z,98218
2023-03-10T07:32:00.532Z,98252
2023-03-10T07:33:00.428Z,98252
2023-03-10T07:34:00.546Z,98252
2023-03-10T07:35:00.495Z,98252
2023-03-10T07:36:09.539Z,98252
2023-03-10T07:37:00.437Z,98284
2023-03-10T07:38:00.466Z,98284
2023-03-10T07:39:00.453Z,98284
2023-03-10T07:40:00.447Z,98284
2023-03-10T07:41:02.052Z,98284
2023-03-10T07:42:00.482Z,98292
2023-03-10T07:43:00.508Z,98292
2023-03-10T07:44:00.550Z,98292
2023-03-10T07:45:00.571Z,98292
2023-03-10T07:46:03.784Z,98292
2023-03-10T07:47:00.442Z,98318
2023-03-10T07:48:00.457Z,98318
2023-03-10T07:49:00.478Z,98318
2023-03-10T07:50:00.472Z,98318
2023-03-10T07:51:01.012Z,98318
2023-03-10T07:52:00.432Z,98336
2023-03-10T07:53:00.495Z,98336
2023-03-10T07:54:00.465Z,98336
2023-03-10T07:55:00.458Z,98336
2023-03-10T07:56:04.969Z,98336
2023-03-10T07:57:00.458Z,98372
2023-03-10T07:58:00.457Z,98372
2023-03-10T07:59:00.659Z,98372
2023-03-10T08:00:00.473Z,98372
2023-03-10T08:01:00.735Z,98372
2023-03-10T08:02:00.487Z,98416
2023-03-10T08:03:00.448Z,98416
2023-03-10T08:04:00.566Z,98416
2023-03-10T08:05:00.637Z,98416
2023-03-10T08:06:00.713Z,98416
2023-03-10T08:07:00.471Z,98462
2023-03-10T08:08:00.763Z,98462
2023-03-10T08:09:00.427Z,98462
2023-03-10T08:10:00.585Z,98462
2023-03-10T08:11:02.909Z,98462
2023-03-10T08:12:00.777Z,98501
2023-03-10T08:13:00.435Z,98501
2023-03-10T08:14:00.484Z,98501
2023-03-10T08:15:00.468Z,98501
2023-03-10T08:16:01.187Z,98501
2023-03-10T08:17:00.446Z,98517
2023-03-10T08:18:00.462Z,98517
2023-03-10T08:19:00.420Z,98517
2023-03-10T08:20:00.436Z,98517
2023-03-10T08:21:02.644Z,98517
2023-03-10T08:22:00.421Z,98547
2023-03-10T08:23:00.463Z,98547
2023-03-10T08:24:00.451Z,98547
2023-03-10T08:25:00.715Z,98547
2023-03-10T08:26:01.948Z,98547
2023-03-10T08:27:00.436Z,98587
2023-03-10T08:28:00.445Z,98587
2023-03-10T08:29:00.756Z,98587
2023-03-10T08:30:00.424Z,98587
2023-03-10T08:31:05.759Z,98587
2023-03-10T08:32:00.589Z,98627
2023-03-10T08:33:00.518Z,98627
2023-03-10T08:34:00.506Z,98627
2023-03-10T08:35:00.445Z,98627
2023-03-10T08:36:03.260Z,98627
2023-03-10T08:37:00.455Z,98671
2023-03-10T08:38:00.462Z,98671
2023-03-10T08:39:00.515Z,98671
2023-03-10T08:40:00.444Z,98671
2023-03-10T08:41:10.348Z,98671
2023-03-10T08:42:00.430Z,98696
2023-03-10T08:43:00.502Z,98696
2023-03-10T08:44:00.461Z,98696
2023-03-10T08:45:00.424Z,98696
2023-03-10T08:46:00.430Z,98696
2023-03-10T08:47:00.635Z,98707
2023-03-10T08:48:00.438Z,98707
2023-03-10T08:49:00.516Z,98707
2023-03-10T08:50:00.501Z,98707
2023-03-10T08:51:00.439Z,98707
2023-03-10T08:52:00.476Z,98727
2023-03-10T08:53:00.442Z,98727
2023-03-10T08:54:00.950Z,98727
2023-03-10T08:55:00.443Z,98727
2023-03-10T08:56:00.460Z,98727
2023-03-10T08:57:00.481Z,98724
2023-03-10T08:58:00.435Z,98724
2023-03-10T08:59:00.450Z,98724
2023-03-10T09:00:00.524Z,98724
2023-03-10T09:01:00.443Z,98724
2023-03-10T09:02:00.675Z,98760
2023-03-10T09:03:00.515Z,98760
2023-03-10T09:04:01.091Z,98760
2023-03-10T09:05:00.446Z,98760
2023-03-10T09:06:00.550Z,98760
2023-03-10T09:07:00.550Z,98774
2023-03-10T09:08:00.429Z,98774
2023-03-10T09:09:01.019Z,98774
2023-03-10T09:10:00.443Z,98774
2023-03-10T09:11:00.991Z,98774
2023-03-10T09:12:00.466Z,98796
2023-03-10T09:13:13.013Z,98796
2023-03-10T09:14:01.073Z,98796
2023-03-10T09:15:00.440Z,98796
2023-03-10T09:16:00.469Z,98796
2023-03-10T09:17:00.541Z,98806
2023-03-10T09:18:00.684Z,98806
2023-03-10T09:19:00.867Z,98806
2023-03-10T09:20:00.434Z,98806
2023-03-10T09:21:00.653Z,98806
2023-03-10T09:22:00.440Z,98813
2023-03-10T09:23:00.452Z,98813
2023-03-10T09:24:01.262Z,98813
2023-03-10T09:25:00.902Z,98813
2023-03-10T09:26:00.428Z,98813
2023-03-10T09:27:00.442Z,98813
2023-03-10T09:28:00.453Z,98813
2023-03-10T09:29:01.209Z,98813
2023-03-10T09:30:01.513Z,98813
2023-03-10T09:31:00.601Z,98813
2023-03-10T09:32:00.518Z,98850
2023-03-10T09:33:00.504Z,98850
2023-03-10T09:34:00.646Z,98850
2023-03-10T09:35:00.479Z,98850
2023-03-10T09:36:07.644Z,98850
2023-03-10T09:37:00.731Z,98887
2023-03-10T09:38:00.426Z,98887
2023-03-10T09:39:00.604Z,98887
2023-03-10T09:40:00.441Z,98887
2023-03-10T09:41:10.338Z,98887
2023-03-10T09:42:00.416Z,98929
2023-03-10T09:43:03.466Z,98929
2023-03-10T09:44:05.855Z,98929
2023-03-10T09:45:01.447Z,98929
2023-03-10T09:46:07.431Z,98929
2023-03-10T09:47:10.341Z,98956
2023-03-10T09:48:10.355Z,98956
2023-03-10T09:49:07.985Z,98956
2023-03-10T09:50:10.382Z,98956
2023-03-10T09:51:03.213Z,98956
2023-03-10T09:52:05.153Z,98950
2023-03-10T09:53:10.343Z,98950
2023-03-10T09:54:03.726Z,98950
2023-03-10T09:55:04.722Z,98950
2023-03-10T09:56:02.201Z,98950
2023-03-10T09:57:00.457Z,98965
2023-03-10T09:58:02.495Z,98965
2023-03-10T09:59:04.100Z,98965
2023-03-10T10:00:02.964Z,98965
2023-03-10T10:01:00.574Z,98965
2023-03-10T10:02:01.388Z,98989
2023-03-10T10:03:05.075Z,98989
2023-03-10T10:04:10.522Z,98989
2023-03-10T10:05:03.963Z,98989
2023-03-10T10:06:01.501Z,98989
2023-03-10T10:07:01.038Z,99014
2023-03-10T10:08:03.738Z,99014
2023-03-10T10:09:05.295Z,99014
2023-03-10T10:10:03.939Z,99014
2023-03-10T10:11:01.874Z,99014
2023-03-10T10:12:09.823Z,99031
2023-03-10T10:13:02.162Z,99031
2023-03-10T10:14:13.237Z,99031
2023-03-10T10:15:05.516Z,99031
2023-03-10T10:16:24.436Z,99031
2023-03-10T10:17:05.203Z,99052
2023-03-10T10:18:18.010Z,99052
2023-03-10T10:19:01.549Z,99052
2023-03-10T10:20:00.696Z,99052
2023-03-10T10:21:05.903Z,99052
2023-03-10T10:22:06.456Z,99085
2023-03-10T10:23:00.426Z,99085
2023-03-10T10:24:00.476Z,99085
2023-03-10T10:25:10.353Z,99085
2023-03-10T10:26:07.765Z,99085
2023-03-10T10:27:00.457Z,99110
2023-03-10T10:28:03.446Z,99110
2023-03-10T10:29:01.895Z,99110
2023-03-10T10:30:10.339Z,99110
2023-03-10T10:31:10.440Z,99110
2023-03-10T10:32:03.889Z,99146
2023-03-10T10:33:01.593Z,99146
2023-03-10T10:34:01.750Z,99146
2023-03-10T10:35:10.346Z,99146
2023-03-10T10:36:01.574Z,99146
2023-03-10T10:37:00.939Z,99152
2023-03-10T10:38:10.349Z,99152
2023-03-10T10:39:01.466Z,99152
2023-03-10T10:40:00.560Z,99152
2023-03-10T10:41:07.330Z,99152
2023-03-10T10:42:10.345Z,99164
2023-03-10T10:43:01.134Z,99164
2023-03-10T10:44:10.336Z,99164
2023-03-10T10:45:03.654Z,99164
2023-03-10T10:46:04.744Z,99164
2023-03-10T10:47:00.425Z,99187
2023-03-10T10:48:00.821Z,99187
2023-03-10T10:49:02.175Z,99187
2023-03-10T10:50:09.252Z,99187
2023-03-10T10:51:00.433Z,99187
2023-03-10T10:52:01.988Z,99195
2023-03-10T10:53:10.345Z,99195
2023-03-10T10:54:03.242Z,99195
2023-03-10T10:55:00.441Z,99195
2023-03-10T10:56:02.832Z,99195
2023-03-10T10:57:00.902Z,99201
2023-03-10T10:58:01.942Z,99201
2023-03-10T10:59:10.360Z,99201
2023-03-10T11:00:10.344Z,99201
2023-03-10T11:01:04.090Z,99201
2023-03-10T11:02:02.200Z,99228
2023-03-10T11:03:00.435Z,99228
2023-03-10T11:04:03.747Z,99228
2023-03-10T11:05:07.029Z,99228
2023-03-10T11:06:00.464Z,99228
2023-03-10T11:07:10.353Z,99255
2023-03-10T11:08:10.361Z,99255
2023-03-10T11:09:03.411Z,99255
2023-03-10T11:10:00.439Z,99255
2023-03-10T11:11:10.359Z,99255
2023-03-10T11:12:00.472Z,99251
2023-03-10T11:13:10.505Z,99251
2023-03-10T11:14:00.416Z,99251
2023-03-10T11:15:04.943Z,99251
2023-03-10T11:16:05.324Z,99251
2023-03-10T11:17:10.373Z,99250
2023-03-10T11:18:10.383Z,99250
2023-03-10T11:19:00.426Z,99250
2023-03-10T11:20:10.365Z,99250
2023-03-10T11:21:05.268Z,99250
2023-03-10T11:22:05.139Z,99251
2023-03-10T11:23:07.501Z,99251
2023-03-10T11:24:10.362Z,99251
2023-03-10T11:25:04.943Z,99251
2023-03-10T11:26:10.348Z,99251
2023-03-10T11:27:10.353Z,99244
2023-03-10T11:28:10.352Z,99244
2023-03-10T11:29:10.366Z,99244
2023-03-10T11:30:10.407Z,99244
2023-03-10T11:31:10.396Z,99244
2023-03-10T11:32:06.678Z,99245
2023-03-10T11:33:05.375Z,99245
2023-03-10T11:34:01.538Z,99245
2023-03-10T11:35:09.280Z,99245
2023-03-10T11:36:09.599Z,99245
2023-03-10T11:37:10.428Z,99226
2023-03-10T11:38:10.420Z,99226
2023-03-10T11:39:05.765Z,99226
2023-03-10T11:40:10.363Z,99226
2023-03-10T11:41:03.863Z,99226
2023-03-10T11:42:06.502Z,99237
2023-03-10T11:43:05.664Z,99237
2023-03-10T11:44:09.815Z,99237
2023-03-10T11:45:10.391Z,99237
2023-03-10T11:46:05.929Z,99237
2023-03-10T11:47:08.363Z,99271
2023-03-10T11:48:10.359Z,99271
2023-03-10T11:49:10.000Z,99271
2023-03-10T11:50:10.371Z,99271
2023-03-10T11:51:01.246Z,99271
2023-03-10T11:52:03.871Z,99302
2023-03-10T11:53:04.489Z,99302
2023-03-10T11:54:02.469Z,99302
2023-03-10T11:55:03.926Z,99302
2023-03-10T11:56:01.280Z,99302
2023-03-10T11:57:03.135Z,99338
2023-03-10T11:58:02.548Z,99338
2023-03-10T11:59:10.351Z,99338
2023-03-10T12:00:01.514Z,99338
2023-03-10T12:01:00.879Z,99338
2023-03-10T12:02:10.367Z,99325
2023-03-10T12:03:10.389Z,99325
2023-03-10T12:04:08.381Z,99325
2023-03-10T12:05:00.486Z,99325
2023-03-10T12:06:01.939Z,99325
2023-03-10T12:07:00.425Z,99361
2023-03-10T12:08:02.616Z,99361
2023-03-10T12:09:01.269Z,99361
2023-03-10T12:10:03.205Z,99361
2023-03-10T12:11:03.670Z,99361
2023-03-10T12:12:01.877Z,99409
2023-03-10T12:13:00.750Z,99409
2023-03-10T12:14:00.520Z,99409
2023-03-10T12:15:02.340Z,99409
2023-03-10T12:16:02.517Z,99409
2023-03-10T12:17:01.491Z,99432
2023-03-10T12:18:01.858Z,99432
2023-03-10T12:19:00.592Z,99432
2023-03-10T12:20:07.400Z,99432
2023-03-10T12:21:10.345Z,99432
2023-03-10T12:22:10.366Z,99456
2023-03-10T12:23:10.391Z,99456
2023-03-10T12:24:01.627Z,99456
2023-03-10T12:25:00.480Z,99456
2023-03-10T12:26:00.442Z,99456
2023-03-10T12:27:01.161Z,99459
2023-03-10T12:28:10.356Z,99459
2023-03-10T12:29:10.341Z,99459
2023-03-10T12:30:10.367Z,99459
2023-03-10T12:31:01.507Z,99459
2023-03-10T12:32:00.571Z,99482
2023-03-10T12:33:00.452Z,99482
2023-03-10T12:34:10.363Z,99482
2023-03-10T12:35:10.338Z,99482
2023-03-10T12:36:01.486Z,99482
2023-03-10T12:37:01.432Z,99511
2023-03-10T12:38:10.342Z,99511
2023-03-10T12:39:10.337Z,99511
2023-03-10T12:40:00.445Z,99511
2023-03-10T12:41:00.791Z,99511
2023-03-10T12:42:01.634Z,99517
2023-03-10T12:43:10.349Z,99517
2023-03-10T12:44:06.273Z,99517
2023-03-10T12:45:05.646Z,99517
2023-03-10T12:46:01.235Z,99517
2023-03-10T12:47:00.476Z,99513
2023-03-10T12:48:03.478Z,99513
2023-03-10T12:49:06.470Z,99513
2023-03-10T12:50:00.427Z,99513
2023-03-10T12:51:02.412Z,99513
2023-03-10T12:52:01.448Z,99522